createdAt,value
2022-10-17T00:03:00.343Z,94932.88
2022-10-17T00:06:13.087Z,94936.09
2022-10-17T00:09:16.762Z,94937.50
2022-10-17T00:12:20.787Z,94936.59
2022-10-17T00:15:23.851Z,94937.41
2022-10-17T00:18:27.284Z,94942.66
2022-10-17T00:21:30.934Z,94944.94
2022-10-17T00:24:34.848Z,94942.47
2022-10-17T00:27:40.522Z,94942.59
2022-10-17T00:30:44.398Z,94949.22
2022-10-17T00:33:48.237Z,94958.81
2022-10-17T00:36:52.634Z,94955.22
2022-10-17T00:39:56.219Z,94947.63
2022-10-17T00:42:59.555Z,94949.31
2022-10-17T00:46:03.177Z,94946.88
2022-10-17T00:49:09.678Z,94948.69
2022-10-17T00:52:18.975Z,94953.59
2022-10-17T00:55:30.214Z,94953.22
2022-10-17T00:58:34.432Z,94953.75
2022-10-17T01:01:38.246Z,94952.94
2022-10-17T01:04:45.219Z,94953.34
2022-10-17T01:07:51.641Z,94947.56
2022-10-17T01:11:11.008Z,94953.81
2022-10-17T01:14:33.425Z,94943.66
2022-10-17T01:17:56.557Z,94944.16
2022-10-17T01:21:41.002Z,94950.66
2022-10-17T01:25:00.309Z,94944.94
2022-10-17T01:28:37.721Z,94947.50
2022-10-17T01:31:53.423Z,94943.53
2022-10-17T01:35:27.756Z,94939.53
2022-10-17T01:38:40.327Z,94938.69
2022-10-17T01:41:52.859Z,94926.66
2022-10-17T01:44:58.789Z,94923.53
2022-10-17T01:48:07.900Z,94929.28
2022-10-17T01:51:38.809Z,94925.63
2022-10-17T01:54:50.584Z,94928.06
2022-10-17T01:57:59.058Z,94912.88
2022-10-17T02:01:07.342Z,94910.44
2022-10-17T02:04:12.410Z,94913.84
2022-10-17T02:07:19.309Z,94915.66
2022-10-17T02:10:32.552Z,94914.50
2022-10-17T02:13:42.977Z,94909.94
2022-10-17T02:16:55.600Z,94904.44
2022-10-17T02:20:18.483Z,94904.44
2022-10-17T02:23:36.724Z,94889.16
2022-10-17T02:27:12.551Z,94893.81
2022-10-17T02:30:33.232Z,94889.25
2022-10-17T02:34:02.112Z,94886.75
2022-10-17T02:37:08.663Z,94886.75
2022-10-17T02:40:15.053Z,94877.47
2022-10-17T02:43:20.179Z,94874.69
2022-10-17T02:46:27.735Z,94876.59
2022-10-17T02:49:37.319Z,94877.47
2022-10-17T02:52:54.039Z,94866.16
2022-10-17T02:56:04.190Z,94863.88
2022-10-17T02:59:12.359Z,94857.19
2022-10-17T03:02:16.023Z,94854.75
2022-10-17T03:05:23.883Z,94847.41
2022-10-17T03:08:27.571Z,94849.25
2022-10-17T03:11:32.540Z,94845.59
2022-10-17T03:14:36.761Z,94836.78
2022-10-17T03:17:41.190Z,94832.13
2022-10-17T03:20:45.336Z,94821.94
2022-10-17T03:23:49.612Z,94823.78
2022-10-17T03:26:55.038Z,94825.59
2022-10-17T03:29:59.733Z,94811.53
2022-10-17T03:33:03.423Z,94808.09
2022-10-17T03:36:14.121Z,94811.06
2022-10-17T03:39:18.039Z,94802.63
2022-10-17T03:42:22.135Z,94799.88
2022-10-17T03:45:25.908Z,94792.78
2022-10-17T03:48:31.873Z,94793.19
2022-10-17T03:51:35.905Z,94787.25
2022-10-17T03:54:43.668Z,94791.34
2022-10-17T03:57:47.572Z,94788.69
2022-10-17T04:00:53.970Z,94787.22
2022-10-17T04:03:58.244Z,94783.28
2022-10-17T04:07:05.858Z,94771.88
2022-10-17T04:10:12.277Z,94767.94
2022-10-17T04:13:16.055Z,94760.28
2022-10-17T04:16:19.440Z,94763.22
2022-10-17T04:19:32.580Z,94752.28
2022-10-17T04:22:35.954Z,94748.34
2022-10-17T04:25:39.291Z,94740.69
2022-10-17T04:28:42.156Z,94732.25
2022-10-17T04:31:45.209Z,94735.84
2022-10-17T04:35:03.429Z,94725.38
2022-10-17T04:38:08.197Z,94712.41
2022-10-17T04:41:14.510Z,94712.03
2022-10-17T04:44:17.499Z,94708.84
2022-10-17T04:47:26.755Z,94708.94
2022-10-17T04:50:31.111Z,94704.66
2022-10-17T04:54:02.764Z,94697.31
2022-10-17T04:57:06.367Z,94695.47
2022-10-17T05:03:41.771Z,94685.03
2022-10-17T05:06:45.464Z,94679.88
2022-10-17T05:09:59.691Z,94673.53
2022-10-17T05:13:02.722Z,94675.09
2022-10-17T05:16:08.716Z,94667.69
2022-10-17T05:19:12.662Z,94662.13
2022-10-17T05:22:22.366Z,94655.91
2022-10-17T05:25:26.363Z,94651.59
2022-10-17T05:28:29.355Z,94643.78
2022-10-17T05:31:36.210Z,94646.44
2022-10-17T05:34:41.209Z,94643.06
2022-10-17T05:37:45.259Z,94647.06
2022-10-17T05:40:48.957Z,94641.56
2022-10-17T05:43:52.178Z,94623.91
2022-10-17T05:47:01.321Z,94623.78
2022-10-17T05:50:05.084Z,94623.03
2022-10-17T05:53:20.859Z,94617.09
2022-10-17T05:56:27.363Z,94618.56
2022-10-17T05:59:31.037Z,94604.94
2022-10-17T06:02:46.389Z,94612.66
2022-10-17T06:05:52.478Z,94606.88
2022-10-17T06:08:57.038Z,94597.06
2022-10-17T06:12:07.350Z,94595.22
2022-10-17T06:15:11.352Z,94592.56
2022-10-17T06:18:16.861Z,94585.16
2022-10-17T06:21:24.621Z,94581.44
2022-10-17T06:24:32.835Z,94574.16
2022-10-17T06:27:39.760Z,94577.81
2022-10-17T06:30:44.058Z,94574.16
2022-10-17T06:33:47.883Z,94563.53
2022-10-17T06:36:52.105Z,94560.91
2022-10-17T06:39:56.096Z,94561.28
2022-10-17T06:43:01.414Z,94559.06
2022-10-17T06:46:30.275Z,94550.53
2022-10-17T06:49:40.123Z,94546.78
2022-10-17T06:53:15.888Z,94546.81
2022-10-17T06:56:25.858Z,94542.03
2022-10-17T06:59:59.106Z,94531.13
2022-10-17T07:03:11.035Z,94526.03
2022-10-17T07:06:14.738Z,94530.44
2022-10-17T07:09:19.858Z,94524.19
2022-10-17T07:12:24.785Z,94516.69
2022-10-17T07:15:28.772Z,94512.09
2022-10-17T07:18:32.084Z,94507.06
2022-10-17T07:21:39.005Z,94510.53
2022-10-17T07:24:46.195Z,94501.13
2022-10-17T07:27:55.943Z,94505.88
2022-10-17T07:31:05.366Z,94498.44
2022-10-17T07:34:09.578Z,94498.41
2022-10-17T07:37:13.146Z,94491.81
2022-10-17T07:40:22.927Z,94494.03
2022-10-17T07:43:29.144Z,94484.09
2022-10-17T07:46:34.479Z,94484.41
2022-10-17T07:49:42.971Z,94474.84
2022-10-17T07:52:47.099Z,94474.84
2022-10-17T07:55:51.903Z,94469.75
2022-10-17T08:02:01.363Z,94460.88
2022-10-17T08:05:05.563Z,94458.31
2022-10-17T08:08:09.275Z,94462.44
2022-10-17T08:11:15.831Z,94463.88
2022-10-17T08:14:19.394Z,94450.56
2022-10-17T08:17:23.161Z,94457.78
2022-10-17T08:20:27.241Z,94453.88
2022-10-17T08:23:31.319Z,94451.44
2022-10-17T08:26:37.956Z,94453.16
2022-10-17T08:29:43.419Z,94455.75
2022-10-17T08:32:47.154Z,94448.53
2022-10-17T08:35:51.200Z,94450.09
2022-10-17T08:38:54.722Z,94442.75
2022-10-17T08:42:19.109Z,94439.88
2022-10-17T08:45:36.261Z,94437.03
2022-10-17T08:48:46.708Z,94429.56
2022-10-17T08:52:00.341Z,94435.44
2022-10-17T08:55:04.240Z,94433.44
2022-10-17T08:58:16.189Z,94427.56
2022-10-17T09:01:47.142Z,94427.41
2022-10-17T09:05:26.696Z,94423.78
2022-10-17T09:09:11.644Z,94422.25
2022-10-17T09:12:36.265Z,94420.59
2022-10-17T09:15:45.325Z,94415.25
2022-10-17T09:19:02.040Z,94414.22
2022-10-17T09:22:14.362Z,94412.84
2022-10-17T09:25:20.604Z,94418.47
2022-10-17T09:28:26.813Z,94412.00
2022-10-17T09:31:36.125Z,94416.22
2022-10-17T09:34:40.135Z,94409.75
2022-10-17T09:37:43.460Z,94413.91
2022-10-17T09:40:57.423Z,94415.84
2022-10-17T09:44:14.558Z,94411.88
2022-10-17T09:47:24.343Z,94410.44
2022-10-17T09:50:33.514Z,94408.66
2022-10-17T09:53:40.787Z,94410.47
2022-10-17T09:57:05.087Z,94419.94
2022-10-17T10:00:20.742Z,94414.06
2022-10-17T10:03:26.575Z,94415.09
2022-10-17T10:06:30.505Z,94419.44
2022-10-17T10:09:39.468Z,94421.22
2022-10-17T10:13:04.540Z,94420.47
2022-10-17T10:16:42.137Z,94413.47
2022-10-17T10:19:51.906Z,94415.28
2022-10-17T10:23:18.229Z,94418.97
2022-10-17T10:26:28.042Z,94416.06
2022-10-17T10:29:37.268Z,94419.69
2022-10-17T10:32:40.624Z,94412.72
2022-10-17T10:35:43.863Z,94408.69
2022-10-17T10:38:54.976Z,94410.53
2022-10-17T10:41:59.418Z,94416.38
2022-10-17T10:45:42.845Z,94414.44
2022-10-17T10:48:59.107Z,94411.88
2022-10-17T10:52:05.617Z,94407.50
2022-10-17T10:55:37.982Z,94406.75
2022-10-17T10:59:05.622Z,94413.69
2022-10-17T11:02:38.952Z,94410.75
2022-10-17T11:05:59.755Z,94406.34
2022-10-17T11:09:12.087Z,94403.34
2022-10-17T11:12:24.363Z,94400.06
2022-10-17T11:15:43.742Z,94397.44
2022-10-17T11:19:16.778Z,94397.78
2022-10-17T11:22:29.267Z,94402.84
2022-10-17T11:25:37.277Z,94398.44
2022-10-17T11:28:40.283Z,94398.38
2022-10-17T11:31:50.112Z,94391.47
2022-10-17T11:34:58.924Z,94393.25
2022-10-17T11:38:21.311Z,94392.09
2022-10-17T11:41:47.500Z,94386.91
2022-10-17T11:44:57.449Z,94397.41
2022-10-17T11:48:07.142Z,94398.13
2022-10-17T11:54:46.202Z,94389.72
2022-10-17T11:57:55.732Z,94390.03
2022-10-17T12:01:32.678Z,94387.38
2022-10-17T12:04:46.129Z,94392.09
2022-10-17T12:08:16.554Z,94398.63
2022-10-17T12:11:38.227Z,94399.63
2022-10-17T12:14:48.125Z,94389.69
2022-10-17T12:18:04.907Z,94384.50
2022-10-17T12:21:08.617Z,94385.50
2022-10-17T12:24:42.984Z,94378.91
2022-10-17T12:27:48.114Z,94380.28
2022-10-17T12:31:04.101Z,94383.19
2022-10-17T12:34:18.480Z,94378.09
2022-10-17T12:37:44.327Z,94371.44
2022-10-17T12:40:51.388Z,94377.22
2022-10-17T12:43:55.966Z,94386.25
2022-10-17T12:47:10.078Z,94373.88
2022-10-17T12:50:51.543Z,94381.75
2022-10-17T12:54:03.046Z,94379.53
2022-10-17T12:57:35.629Z,94380.19
2022-10-17T13:01:11.685Z,94379.75
2022-10-17T13:04:14.556Z,94381.22
2022-10-17T13:07:23.486Z,94374.78
2022-10-17T13:10:34.817Z,94369.06
2022-10-17T13:13:52.773Z,94366.19
2022-10-17T13:17:02.861Z,94362.41
2022-10-17T13:20:29.051Z,94357.91
2022-10-17T13:23:37.353Z,94357.84
2022-10-17T13:26:46.342Z,94362.56
2022-10-17T13:29:50.469Z,94352.16
2022-10-17T13:32:53.825Z,94354.97
2022-10-17T13:36:01.198Z,94353.78
2022-10-17T13:39:13.661Z,94348.59
2022-10-17T13:42:26.832Z,94344.28
2022-10-17T13:45:33.204Z,94350.47
2022-10-17T13:48:39.251Z,94355.94
2022-10-17T13:51:48.353Z,94356.72
2022-10-17T13:54:54.554Z,94356.34
2022-10-17T13:57:57.919Z,94353.06
2022-10-17T14:01:01.306Z,94350.84
2022-10-17T14:04:11.643Z,94350.50
2022-10-17T14:07:34.211Z,94347.63
2022-10-17T14:10:43.655Z,94348.31
2022-10-17T14:13:51.562Z,94353.41
2022-10-17T14:16:55.645Z,94351.47
2022-10-17T14:23:33.966Z,94351.75
2022-10-17T14:26:54.011Z,94346.97
2022-10-17T14:30:03.196Z,94350.47
2022-10-17T14:33:13.439Z,94345.53
2022-10-17T14:36:17.312Z,94345.78
2022-10-17T14:39:25.046Z,94346.38
2022-10-17T14:42:28.875Z,94344.75
2022-10-17T14:45:38.086Z,94344.25
2022-10-17T14:48:43.742Z,94340.56
2022-10-17T14:52:18.941Z,94339.81
2022-10-17T14:55:25.351Z,94335.22
2022-10-17T14:58:34.286Z,94342.03
2022-10-17T15:01:37.807Z,94336.81
2022-10-17T15:04:42.225Z,94344.66
2022-10-17T15:07:45.190Z,94337.44
2022-10-17T15:10:49.713Z,94337.84
2022-10-17T15:13:53.444Z,94338.25
2022-10-17T15:16:56.809Z,94339.72
2022-10-17T15:20:00.204Z,94344.47
2022-10-17T15:23:04.836Z,94335.06
2022-10-17T15:26:26.368Z,94336.88
2022-10-17T15:29:29.933Z,94338.66
2022-10-17T15:32:33.844Z,94338.94
2022-10-17T15:35:37.976Z,94344.53
2022-10-17T15:38:40.985Z,94338.31
2022-10-17T15:41:45.069Z,94348.47
2022-10-17T15:44:50.619Z,94340.03
2022-10-17T15:47:57.170Z,94343.91
2022-10-17T15:51:00.255Z,94347.44
2022-10-17T15:54:05.477Z,94338.88
2022-10-17T15:57:24.144Z,94342.38
2022-10-17T16:00:28.476Z,94336.66
2022-10-17T16:03:32.370Z,94330.19
2022-10-17T16:06:36.498Z,94332.06
2022-10-17T16:09:40.264Z,94328.88
2022-10-17T16:12:44.452Z,94337.28
2022-10-17T16:15:47.588Z,94320.44
2022-10-17T16:18:50.604Z,94322.50
2022-10-17T16:21:56.276Z,94322.56
2022-10-17T16:25:08.415Z,94324.06
2022-10-17T16:28:12.510Z,94328.31
2022-10-17T16:31:37.203Z,94327.91
2022-10-17T16:34:41.013Z,94336.06
2022-10-17T16:37:44.727Z,94322.13
2022-10-17T16:40:47.702Z,94332.44
2022-10-17T16:43:51.777Z,94329.41
2022-10-17T16:46:54.908Z,94325.00
2022-10-17T16:49:58.679Z,94320.25
2022-10-17T16:53:04.600Z,94324.59
2022-10-17T16:56:09.192Z,94313.38
2022-10-17T16:59:13.221Z,94322.72
2022-10-17T17:02:18.921Z,94322.78
2022-10-17T17:05:24.182Z,94311.75
2022-10-17T17:08:27.928Z,94310.63
2022-10-17T17:11:33.322Z,94303.75
2022-10-17T17:14:36.515Z,94303.34
2022-10-17T17:17:55.759Z,94303.66
2022-10-17T17:21:01.371Z,94321.72
2022-10-17T17:24:06.386Z,94315.47
2022-10-17T17:27:12.822Z,94312.66
2022-10-17T17:30:18.438Z,94308.16
2022-10-17T17:33:25.492Z,94313.13
2022-10-17T17:36:31.432Z,94308.91
2022-10-17T17:39:35.099Z,94309.06
2022-10-17T17:42:38.916Z,94304.44
2022-10-17T17:45:42.684Z,94300.50
2022-10-17T17:48:48.637Z,94305.22
2022-10-17T17:51:51.589Z,94296.66
2022-10-17T17:54:55.079Z,94290.84
2022-10-17T17:57:58.072Z,94290.13
2022-10-17T18:01:02.751Z,94285.06
2022-10-17T18:04:09.138Z,94291.50
2022-10-17T18:07:12.996Z,94287.78
2022-10-17T18:10:16.960Z,94281.72
2022-10-17T18:13:21.577Z,94284.81
2022-10-17T18:16:26.550Z,94287.03
2022-10-17T18:19:29.758Z,94281.47
2022-10-17T18:22:33.136Z,94279.88
2022-10-17T18:25:37.269Z,94284.28
2022-10-17T18:31:45.361Z,94274.75
2022-10-17T18:34:48.132Z,94271.69
2022-10-17T18:37:51.090Z,94269.53
2022-10-17T18:41:04.239Z,94270.59
2022-10-17T18:44:07.568Z,94270.91
2022-10-17T18:47:11.723Z,94258.94
2022-10-17T18:50:15.712Z,94261.25
2022-10-17T18:53:19.694Z,94251.34
2022-10-17T18:56:24.331Z,94256.41
2022-10-17T18:59:28.039Z,94265.31
2022-10-17T19:02:35.526Z,94249.53
2022-10-17T19:05:41.732Z,94251.72
2022-10-17T19:08:46.139Z,94244.47
2022-10-17T19:11:49.053Z,94249.84
2022-10-17T19:14:53.577Z,94248.25
2022-10-17T19:17:56.814Z,94250.69
2022-10-17T19:21:04.926Z,94242.78
2022-10-17T19:24:12.120Z,94237.63
2022-10-17T19:27:16.079Z,94236.09
2022-10-17T19:30:19.177Z,94238.50
2022-10-17T19:33:23.189Z,94233.47
2022-10-17T19:36:32.524Z,94248.19
2022-10-17T19:39:36.684Z,94244.22
2022-10-17T19:42:40.148Z,94236.19
2022-10-17T19:45:43.010Z,94242.41
2022-10-17T19:48:46.431Z,94239.56
2022-10-17T19:51:50.083Z,94240.06
2022-10-17T19:54:53.636Z,94238.41
2022-10-17T19:57:59.689Z,94242.09
2022-10-17T20:01:06.499Z,94242.50
2022-10-17T20:04:11.402Z,94247.13
2022-10-17T20:07:14.884Z,94240.50
2022-10-17T20:10:19.528Z,94238.84
2022-10-17T20:13:23.275Z,94238.53
2022-10-17T20:16:30.188Z,94232.00
2022-10-17T20:19:33.971Z,94233.38
2022-10-17T20:22:36.913Z,94223.16
2022-10-17T20:25:40.215Z,94226.31
2022-10-17T20:28:43.843Z,94231.06
2022-10-17T20:31:48.876Z,94230.41
2022-10-17T20:34:51.789Z,94235.91
2022-10-17T20:37:54.805Z,94223.69
2022-10-17T20:41:05.409Z,94228.44
2022-10-17T20:44:08.910Z,94221.19
2022-10-17T20:47:16.237Z,94216.88
2022-10-17T20:50:21.087Z,94210.22
2022-10-17T20:53:36.692Z,94212.63
2022-10-17T20:56:41.124Z,94212.13
2022-10-17T20:59:46.374Z,94213.72
2022-10-17T21:02:50.721Z,94213.16
2022-10-17T21:05:54.638Z,94213.56
2022-10-17T21:08:58.495Z,94204.81
2022-10-17T21:12:02.237Z,94201.03
2022-10-17T21:15:05.920Z,94201.78
2022-10-17T21:18:09.493Z,94194.53
2022-10-17T21:21:14.612Z,94196.94
2022-10-17T21:24:20.067Z,94199.66
2022-10-17T21:27:23.015Z,94197.97
2022-10-17T21:30:26.952Z,94190.06
2022-10-17T21:33:29.826Z,94190.63
2022-10-17T21:36:33.047Z,94186.16
2022-10-17T21:39:37.201Z,94191.38
2022-10-17T21:42:40.732Z,94194.84
2022-10-17T21:45:44.612Z,94199.97
2022-10-17T21:48:49.227Z,94190.69
2022-10-17T21:51:53.987Z,94180.75
2022-10-17T21:54:56.989Z,94179.50
2022-10-17T21:58:00.243Z,94175.47
2022-10-17T22:01:17.272Z,94166.72
2022-10-17T22:04:21.222Z,94168.75
2022-10-17T22:07:24.540Z,94174.31
2022-10-17T22:10:28.460Z,94177.56
2022-10-17T22:13:32.115Z,94176.50
2022-10-17T22:16:36.443Z,94173.75
2022-10-17T22:19:39.980Z,94175.72
2022-10-17T22:22:43.827Z,94172.53
2022-10-17T22:25:57.690Z,94167.59
2022-10-17T22:29:02.051Z,94153.41
2022-10-17T22:32:05.301Z,94155.00
2022-10-17T22:35:09.484Z,94153.91
2022-10-17T22:38:13.273Z,94156.97
2022-10-17T22:41:17.151Z,94147.13
2022-10-17T22:44:20.379Z,94160.13
2022-10-17T22:47:24.397Z,94166.94
2022-10-17T22:50:27.916Z,94163.47
2022-10-17T22:53:31.483Z,94164.84
2022-10-17T22:56:35.154Z,94158.00
2022-10-17T22:59:38.374Z,94152.78
2022-10-17T23:02:41.527Z,94150.88
2022-10-17T23:05:46.033Z,94152.66
2022-10-17T23:08:49.128Z,94152.44
2022-10-17T23:11:52.748Z,94162.19
2022-10-17T23:14:55.709Z,94152.03
2022-10-17T23:17:59.363Z,94152.13
2022-10-17T23:21:02.308Z,94145.84
2022-10-17T23:24:05.590Z,94152.47
2022-10-17T23:27:08.462Z,94151.13
2022-10-17T23:30:12.702Z,94163.84
2022-10-17T23:33:16.382Z,94157.13
2022-10-17T23:36:21.736Z,94147.63
2022-10-17T23:39:24.666Z,94152.34
2022-10-17T23:42:28.706Z,94143.59
2022-10-17T23:45:36.065Z,94145.00
2022-10-17T23:48:41.168Z,94141.00
2022-10-17T23:51:44.002Z,94135.31
2022-10-17T23:54:47.669Z,94127.69
2022-10-17T23:57:51.199Z,94125.91
